sensor_id;sensor_type;location;lat;lon;timestamp;P1;durP1;ratioP1;P2;durP2;ratioP2
34296;SDS011;20564;42.902;25.336;2023-05-10T00:00:04;9.70;;;3.33;;
34296;SDS011;20564;42.902;25.336;2023-05-10T00:02:32;10.13;;;3.10;;
34296;SDS011;20564;42.902;25.336;2023-05-10T00:04:59;8.77;;;3.13;;
34296;SDS011;20564;42.902;25.336;2023-05-10T00:07:27;8.02;;;3.05;;
34296;SDS011;20564;42.902;25.336;2023-05-10T00:09:53;7.55;;;2.97;;
34296;SDS011;20564;42.902;25.336;2023-05-10T00:12:20;8.88;;;2.65;;
34296;SDS011;20564;42.902;25.336;2023-05-10T00:14:50;6.90;;;2.55;;
34296;SDS011;20564;42.902;25.336;2023-05-10T00:17:17;6.25;;;2.28;;
34296;SDS011;20564;42.902;25.336;2023-05-10T00:19:45;7.18;;;2.63;;
34296;SDS011;20564;42.902;25.336;2023-05-10T00:22:12;7.97;;;2.72;;
34296;SDS011;20564;42.902;25.336;2023-05-10T00:24:39;5.70;;;2.08;;
34296;SDS011;20564;42.902;25.336;2023-05-10T00:27:07;6.22;;;2.30;;
34296;SDS011;20564;42.902;25.336;2023-05-10T00:29:34;7.03;;;2.53;;
34296;SDS011;20564;42.902;25.336;2023-05-10T00:32:01;6.70;;;2.25;;
34296;SDS011;20564;42.902;25.336;2023-05-10T00:34:28;7.88;;;2.40;;
34296;SDS011;20564;42.902;25.336;2023-05-10T00:36:56;6.40;;;2.20;;
34296;SDS011;20564;42.902;25.336;2023-05-10T00:39:23;6.78;;;2.72;;
34296;SDS011;20564;42.902;25.336;2023-05-10T00:41:50;6.63;;;2.65;;
34296;SDS011;20564;42.902;25.336;2023-05-10T00:44:17;7.32;;;2.70;;
34296;SDS011;20564;42.902;25.336;2023-05-10T00:46:45;6.05;;;2.85;;
34296;SDS011;20564;42.902;25.336;2023-05-10T00:49:13;6.05;;;2.33;;
34296;SDS011;20564;42.902;25.336;2023-05-10T00:51:40;6.18;;;2.38;;
34296;SDS011;20564;42.902;25.336;2023-05-10T00:54:10;7.82;;;2.50;;
34296;SDS011;20564;42.902;25.336;2023-05-10T00:56:39;6.43;;;2.42;;
34296;SDS011;20564;42.902;25.336;2023-05-10T00:59:10;8.48;;;2.72;;
34296;SDS011;20564;42.902;25.336;2023-05-10T01:01:38;6.47;;;2.47;;
34296;SDS011;20564;42.902;25.336;2023-05-10T01:04:05;6.43;;;2.25;;
34296;SDS011;20564;42.902;25.336;2023-05-10T01:06:33;8.45;;;2.78;;
34296;SDS011;20564;42.902;25.336;2023-05-10T01:09:01;6.88;;;2.10;;
34296;SDS011;20564;42.902;25.336;2023-05-10T01:11:28;7.20;;;2.50;;
34296;SDS011;20564;42.902;25.336;2023-05-10T01:13:56;8.05;;;2.08;;
34296;SDS011;20564;42.902;25.336;2023-05-10T01:16:24;7.30;;;2.50;;
34296;SDS011;20564;42.902;25.336;2023-05-10T01:18:54;5.68;;;2.03;;
34296;SDS011;20564;42.902;25.336;2023-05-10T01:27:25;6.50;;;2.50;;
34296;SDS011;20564;42.902;25.336;2023-05-10T01:41:45;6.85;;;2.33;;
34296;SDS011;20564;42.902;25.336;2023-05-10T01:44:20;6.65;;;2.65;;
34296;SDS011;20564;42.902;25.336;2023-05-10T01:47:01;7.95;;;2.60;;
34296;SDS011;20564;42.902;25.336;2023-05-10T01:49:47;5.90;;;2.45;;
34296;SDS011;20564;42.902;25.336;2023-05-10T01:52:22;6.10;;;2.35;;
34296;SDS011;20564;42.902;25.336;2023-05-10T01:54:53;5.40;;;2.05;;
34296;SDS011;20564;42.902;25.336;2023-05-10T01:57:28;5.75;;;2.30;;
34296;SDS011;20564;42.902;25.336;2023-05-10T02:00:01;5.82;;;2.10;;
34296;SDS011;20564;42.902;25.336;2023-05-10T02:02:33;6.03;;;2.28;;
34296;SDS011;20564;42.902;25.336;2023-05-10T02:05:08;7.40;;;2.53;;
34296;SDS011;20564;42.902;25.336;2023-05-10T02:07:38;7.70;;;2.60;;
34296;SDS011;20564;42.902;25.336;2023-05-10T02:10:06;6.13;;;2.28;;
34296;SDS011;20564;42.902;25.336;2023-05-10T02:12:36;8.10;;;2.50;;
34296;SDS011;20564;42.902;25.336;2023-05-10T02:15:08;6.40;;;2.25;;
34296;SDS011;20564;42.902;25.336;2023-05-10T02:17:37;5.07;;;2.08;;
34296;SDS011;20564;42.902;25.336;2023-05-10T02:20:06;5.80;;;2.00;;
34296;SDS011;20564;42.902;25.336;2023-05-10T02:22:35;6.20;;;2.05;;
34296;SDS011;20564;42.902;25.336;2023-05-10T02:25:08;5.15;;;1.80;;
34296;SDS011;20564;42.902;25.336;2023-05-10T02:27:38;5.38;;;2.22;;
34296;SDS011;20564;42.902;25.336;2023-05-10T02:30:08;6.65;;;1.90;;
34296;SDS011;20564;42.902;25.336;2023-05-10T02:32:37;4.40;;;1.75;;
34296;SDS011;20564;42.902;25.336;2023-05-10T02:35:06;4.88;;;2.05;;
34296;SDS011;20564;42.902;25.336;2023-05-10T02:37:34;5.40;;;2.13;;
34296;SDS011;20564;42.902;25.336;2023-05-10T02:40:04;5.13;;;2.05;;
34296;SDS011;20564;42.902;25.336;2023-05-10T02:42:33;7.53;;;2.10;;
34296;SDS011;20564;42.902;25.336;2023-05-10T02:45:05;5.53;;;1.88;;
34296;SDS011;20564;42.902;25.336;2023-05-10T02:47:37;4.38;;;1.52;;
34296;SDS011;20564;42.902;25.336;2023-05-10T02:50:05;4.07;;;2.00;;
34296;SDS011;20564;42.902;25.336;2023-05-10T02:55:25;5.22;;;1.77;;
34296;SDS011;20564;42.902;25.336;2023-05-10T02:58:00;5.53;;;2.30;;
34296;SDS011;20564;42.902;25.336;2023-05-10T03:00:28;5.35;;;1.90;;
34296;SDS011;20564;42.902;25.336;2023-05-10T03:02:56;4.50;;;1.60;;
34296;SDS011;20564;42.902;25.336;2023-05-10T03:05:27;3.80;;;1.48;;
34296;SDS011;20564;42.902;25.336;2023-05-10T03:07:54;3.97;;;1.60;;
34296;SDS011;20564;42.902;25.336;2023-05-10T03:10:22;4.57;;;1.67;;
34296;SDS011;20564;42.902;25.336;2023-05-10T03:13:05;4.50;;;1.50;;
34296;SDS011;20564;42.902;25.336;2023-05-10T03:18:10;8.05;;;2.47;;
34296;SDS011;20564;42.902;25.336;2023-05-10T03:20:48;8.02;;;3.08;;
34296;SDS011;20564;42.902;25.336;2023-05-10T03:25:48;5.40;;;2.08;;
34296;SDS011;20564;42.902;25.336;2023-05-10T03:28:17;3.75;;;1.80;;
34296;SDS011;20564;42.902;25.336;2023-05-10T03:30:47;4.47;;;1.95;;
34296;SDS011;20564;42.902;25.336;2023-05-10T03:33:18;6.05;;;2.00;;
34296;SDS011;20564;42.902;25.336;2023-05-10T03:35:45;5.78;;;2.20;;
34296;SDS011;20564;42.902;25.336;2023-05-10T03:38:12;5.68;;;2.17;;
34296;SDS011;20564;42.902;25.336;2023-05-10T03:40:39;4.57;;;2.00;;
34296;SDS011;20564;42.902;25.336;2023-05-10T03:43:09;4.80;;;2.15;;
34296;SDS011;20564;42.902;25.336;2023-05-10T03:45:36;5.07;;;2.38;;
34296;SDS011;20564;42.902;25.336;2023-05-10T03:48:03;7.63;;;2.75;;
34296;SDS011;20564;42.902;25.336;2023-05-10T03:50:31;5.72;;;2.10;;
34296;SDS011;20564;42.902;25.336;2023-05-10T03:52:58;4.68;;;2.05;;
34296;SDS011;20564;42.902;25.336;2023-05-10T03:55:33;7.25;;;2.17;;
34296;SDS011;20564;42.902;25.336;2023-05-10T03:58:03;6.57;;;2.20;;
34296;SDS011;20564;42.902;25.336;2023-05-10T04:00:31;3.75;;;1.70;;
34296;SDS011;20564;42.902;25.336;2023-05-10T04:02:59;5.00;;;2.00;;
34296;SDS011;20564;42.902;25.336;2023-05-10T04:05:28;5.25;;;1.70;;
34296;SDS011;20564;42.902;25.336;2023-05-10T04:07:56;5.32;;;1.85;;
34296;SDS011;20564;42.902;25.336;2023-05-10T04:10:24;5.03;;;1.90;;
34296;SDS011;20564;42.902;25.336;2023-05-10T04:12:51;6.53;;;2.28;;
34296;SDS011;20564;42.902;25.336;2023-05-10T04:15:18;5.22;;;2.13;;
34296;SDS011;20564;42.902;25.336;2023-05-10T04:17:46;4.82;;;1.85;;
34296;SDS011;20564;42.902;25.336;2023-05-10T04:20:21;5.40;;;1.80;;
34296;SDS011;20564;42.902;25.336;2023-05-10T04:22:48;4.05;;;1.65;;
34296;SDS011;20564;42.902;25.336;2023-05-10T04:25:15;4.15;;;1.75;;
34296;SDS011;20564;42.902;25.336;2023-05-10T04:30:13;4.22;;;1.50;;
34296;SDS011;20564;42.902;25.336;2023-05-10T04:32:47;4.40;;;1.60;;
34296;SDS011;20564;42.902;25.336;2023-05-10T04:35:21;4.57;;;1.70;;
34296;SDS011;20564;42.902;25.336;2023-05-10T04:37:57;6.90;;;2.00;;
34296;SDS011;20564;42.902;25.336;2023-05-10T04:40:24;4.25;;;1.65;;
34296;SDS011;20564;42.902;25.336;2023-05-10T04:45:39;4.10;;;1.42;;
34296;SDS011;20564;42.902;25.336;2023-05-10T04:48:10;6.80;;;2.45;;
34296;SDS011;20564;42.902;25.336;2023-05-10T04:50:39;4.07;;;1.65;;
34296;SDS011;20564;42.902;25.336;2023-05-10T04:53:06;4.90;;;1.45;;
34296;SDS011;20564;42.902;25.336;2023-05-10T04:55:34;4.65;;;1.73;;
34296;SDS011;20564;42.902;25.336;2023-05-10T04:58:02;3.90;;;1.55;;
34296;SDS011;20564;42.902;25.336;2023-05-10T05:00:33;5.25;;;1.75;;
34296;SDS011;20564;42.902;25.336;2023-05-10T05:03:01;3.67;;;1.45;;
34296;SDS011;20564;42.902;25.336;2023-05-10T05:05:30;4.00;;;1.55;;
34296;SDS011;20564;42.902;25.336;2023-05-10T05:07:57;4.63;;;1.40;;
34296;SDS011;20564;42.902;25.336;2023-05-10T05:10:25;3.97;;;1.40;;
34296;SDS011;20564;42.902;25.336;2023-05-10T05:15:20;3.78;;;1.35;;
34296;SDS011;20564;42.902;25.336;2023-05-10T05:17:47;3.70;;;1.42;;
34296;SDS011;20564;42.902;25.336;2023-05-10T05:20:14;3.83;;;1.30;;
34296;SDS011;20564;42.902;25.336;2023-05-10T05:22:41;4.82;;;1.10;;
34296;SDS011;20564;42.902;25.336;2023-05-10T05:25:12;4.35;;;1.48;;
34296;SDS011;20564;42.902;25.336;2023-05-10T05:27:39;2.88;;;1.20;;
34296;SDS011;20564;42.902;25.336;2023-05-10T05:30:06;3.08;;;1.15;;
34296;SDS011;20564;42.902;25.336;2023-05-10T05:35:01;3.60;;;1.48;;
34296;SDS011;20564;42.902;25.336;2023-05-10T05:37:32;3.83;;;1.45;;
34296;SDS011;20564;42.902;25.336;2023-05-10T05:40:04;4.00;;;1.30;;
34296;SDS011;20564;42.902;25.336;2023-05-10T05:42:32;3.90;;;1.52;;
34296;SDS011;20564;42.902;25.336;2023-05-10T05:45:04;5.88;;;1.23;;
34296;SDS011;20564;42.902;25.336;2023-05-10T05:47:33;2.58;;;1.23;;
34296;SDS011;20564;42.902;25.336;2023-05-10T05:50:00;2.78;;;1.08;;
34296;SDS011;20564;42.902;25.336;2023-05-10T05:52:27;3.65;;;1.20;;
34296;SDS011;20564;42.902;25.336;2023-05-10T05:54:57;4.55;;;2.35;;
34296;SDS011;20564;42.902;25.336;2023-05-10T05:57:26;3.47;;;1.13;;
34296;SDS011;20564;42.902;25.336;2023-05-10T05:59:53;2.10;;;1.00;;
34296;SDS011;20564;42.902;25.336;2023-05-10T06:02:31;3.28;;;1.40;;
34296;SDS011;20564;42.902;25.336;2023-05-10T06:04:59;2.60;;;1.00;;
34296;SDS011;20564;42.902;25.336;2023-05-10T06:07:26;2.63;;;1.08;;
34296;SDS011;20564;42.902;25.336;2023-05-10T06:09:52;2.63;;;0.93;;
34296;SDS011;20564;42.902;25.336;2023-05-10T06:12:20;4.93;;;1.08;;
34296;SDS011;20564;42.902;25.336;2023-05-10T06:14:47;2.13;;;1.05;;
34296;SDS011;20564;42.902;25.336;2023-05-10T06:17:16;2.47;;;1.08;;
34296;SDS011;20564;42.902;25.336;2023-05-10T06:19:44;2.08;;;1.00;;
34296;SDS011;20564;42.902;25.336;2023-05-10T06:22:11;1.75;;;1.05;;
34296;SDS011;20564;42.902;25.336;2023-05-10T06:24:38;4.10;;;1.77;;
34296;SDS011;20564;42.902;25.336;2023-05-10T06:27:05;2.50;;;1.10;;
34296;SDS011;20564;42.902;25.336;2023-05-10T06:29:33;3.80;;;1.63;;
34296;SDS011;20564;42.902;25.336;2023-05-10T06:32:01;4.60;;;1.48;;
34296;SDS011;20564;42.902;25.336;2023-05-10T06:34:31;4.40;;;1.60;;
34296;SDS011;20564;42.902;25.336;2023-05-10T06:36:58;3.53;;;1.40;;
34296;SDS011;20564;42.902;25.336;2023-05-10T06:39:26;3.13;;;1.50;;
34296;SDS011;20564;42.902;25.336;2023-05-10T06:41:54;2.92;;;1.30;;
34296;SDS011;20564;42.902;25.336;2023-05-10T06:44:21;2.95;;;1.42;;
34296;SDS011;20564;42.902;25.336;2023-05-10T06:46:48;3.10;;;1.40;;
34296;SDS011;20564;42.902;25.336;2023-05-10T06:49:16;2.70;;;1.38;;
34296;SDS011;20564;42.902;25.336;2023-05-10T06:51:44;3.92;;;1.50;;
34296;SDS011;20564;42.902;25.336;2023-05-10T06:54:11;2.88;;;1.27;;
34296;SDS011;20564;42.902;25.336;2023-05-10T06:56:38;4.33;;;1.63;;
34296;SDS011;20564;42.902;25.336;2023-05-10T06:59:05;3.43;;;1.30;;
34296;SDS011;20564;42.902;25.336;2023-05-10T07:01:36;3.95;;;1.45;;
34296;SDS011;20564;42.902;25.336;2023-05-10T07:04:08;3.38;;;1.52;;
34296;SDS011;20564;42.902;25.336;2023-05-10T07:06:36;4.07;;;1.77;;
34296;SDS011;20564;42.902;25.336;2023-05-10T07:09:10;3.50;;;1.27;;
34296;SDS011;20564;42.902;25.336;2023-05-10T07:11:37;4.22;;;1.35;;
34296;SDS011;20564;42.902;25.336;2023-05-10T07:14:05;4.22;;;1.80;;
34296;SDS011;20564;42.902;25.336;2023-05-10T07:16:34;2.90;;;1.40;;
34296;SDS011;20564;42.902;25.336;2023-05-10T07:19:02;5.20;;;1.63;;
34296;SDS011;20564;42.902;25.336;2023-05-10T07:21:29;5.40;;;1.57;;
34296;SDS011;20564;42.902;25.336;2023-05-10T07:23:56;4.47;;;1.67;;
34296;SDS011;20564;42.902;25.336;2023-05-10T07:26:24;4.75;;;1.52;;
34296;SDS011;20564;42.902;25.336;2023-05-10T07:28:54;4.60;;;1.77;;
34296;SDS011;20564;42.902;25.336;2023-05-10T07:31:24;5.20;;;1.50;;
34296;SDS011;20564;42.902;25.336;2023-05-10T07:33:52;3.20;;;1.50;;
34296;SDS011;20564;42.902;25.336;2023-05-10T07:36:20;5.22;;;1.30;;
34296;SDS011;20564;42.902;25.336;2023-05-10T07:38:49;3.28;;;1.83;;
34296;SDS011;20564;42.902;25.336;2023-05-10T07:41:16;3.75;;;1.38;;
34296;SDS011;20564;42.902;25.336;2023-05-10T07:43:43;3.28;;;1.33;;
34296;SDS011;20564;42.902;25.336;2023-05-10T07:46:11;3.75;;;1.52;;
34296;SDS011;20564;42.902;25.336;2023-05-10T07:48:38;5.22;;;1.65;;
34296;SDS011;20564;42.902;25.336;2023-05-10T07:51:06;4.10;;;1.55;;
34296;SDS011;20564;42.902;25.336;2023-05-10T07:53:35;4.22;;;1.38;;
34296;SDS011;20564;42.902;25.336;2023-05-10T07:56:22;5.40;;;1.70;;
34296;SDS011;20564;42.902;25.336;2023-05-10T07:58:53;4.80;;;1.40;;
34296;SDS011;20564;42.902;25.336;2023-05-10T08:01:25;3.30;;;1.52;;
34296;SDS011;20564;42.902;25.336;2023-05-10T08:03:59;3.78;;;1.38;;
34296;SDS011;20564;42.902;25.336;2023-05-10T08:06:29;2.22;;;1.15;;
34296;SDS011;20564;42.902;25.336;2023-05-10T08:09:03;3.95;;;1.60;;
34296;SDS011;20564;42.902;25.336;2023-05-10T08:14:02;4.55;;;1.48;;
34296;SDS011;20564;42.902;25.336;2023-05-10T08:16:29;2.13;;;1.10;;
34296;SDS011;20564;42.902;25.336;2023-05-10T08:18:56;3.80;;;1.45;;
34296;SDS011;20564;42.902;25.336;2023-05-10T08:21:24;3.50;;;1.52;;
34296;SDS011;20564;42.902;25.336;2023-05-10T08:23:52;3.65;;;1.42;;
34296;SDS011;20564;42.902;25.336;2023-05-10T08:26:19;4.47;;;1.52;;
34296;SDS011;20564;42.902;25.336;2023-05-10T08:28:48;5.07;;;1.33;;
34296;SDS011;20564;42.902;25.336;2023-05-10T08:31:16;2.47;;;1.08;;
34296;SDS011;20564;42.902;25.336;2023-05-10T08:33:44;2.63;;;1.50;;
34296;SDS011;20564;42.902;25.336;2023-05-10T08:36:12;4.65;;;1.60;;
34296;SDS011;20564;42.902;25.336;2023-05-10T08:38:40;3.45;;;1.65;;
34296;SDS011;20564;42.902;25.336;2023-05-10T08:41:07;3.05;;;1.42;;
34296;SDS011;20564;42.902;25.336;2023-05-10T08:43:37;3.03;;;1.30;;
34296;SDS011;20564;42.902;25.336;2023-05-10T08:46:06;3.22;;;1.35;;
34296;SDS011;20564;42.902;25.336;2023-05-10T08:48:38;5.55;;;1.80;;
34296;SDS011;20564;42.902;25.336;2023-05-10T08:51:06;3.83;;;1.40;;
34296;SDS011;20564;42.902;25.336;2023-05-10T08:53:36;2.78;;;1.20;;
34296;SDS011;20564;42.902;25.336;2023-05-10T08:56:07;2.10;;;1.15;;
34296;SDS011;20564;42.902;25.336;2023-05-10T08:58:34;2.83;;;1.30;;
34296;SDS011;20564;42.902;25.336;2023-05-10T09:01:02;4.00;;;1.33;;
34296;SDS011;20564;42.902;25.336;2023-05-10T09:03:29;1.92;;;0.95;;
34296;SDS011;20564;42.902;25.336;2023-05-10T09:08:26;1.75;;;0.95;;
34296;SDS011;20564;42.902;25.336;2023-05-10T09:10:59;2.58;;;1.10;;
34296;SDS011;20564;42.902;25.336;2023-05-10T09:13:39;2.45;;;0.80;;
34296;SDS011;20564;42.902;25.336;2023-05-10T09:16:06;1.92;;;1.00;;
34296;SDS011;20564;42.902;25.336;2023-05-10T09:18:45;3.45;;;1.25;;
34296;SDS011;20564;42.902;25.336;2023-05-10T09:23:49;2.70;;;0.98;;
34296;SDS011;20564;42.902;25.336;2023-05-10T09:26:17;10.63;;;2.28;;
34296;SDS011;20564;42.902;25.336;2023-05-10T09:28:54;4.43;;;1.33;;
34296;SDS011;20564;42.902;25.336;2023-05-10T09:31:28;4.22;;;1.38;;
34296;SDS011;20564;42.902;25.336;2023-05-10T09:34:15;4.82;;;1.42;;
34296;SDS011;20564;42.902;25.336;2023-05-10T09:36:54;7.30;;;1.60;;
34296;SDS011;20564;42.902;25.336;2023-05-10T09:39:32;4.05;;;1.45;;
34296;SDS011;20564;42.902;25.336;2023-05-10T09:42:07;3.45;;;1.27;;
34296;SDS011;20564;42.902;25.336;2023-05-10T09:44:35;3.80;;;1.17;;
34296;SDS011;20564;42.902;25.336;2023-05-10T09:47:06;3.90;;;1.10;;
34296;SDS011;20564;42.902;25.336;2023-05-10T09:49:36;2.80;;;1.10;;
34296;SDS011;20564;42.902;25.336;2023-05-10T09:54:33;3.03;;;1.13;;
34296;SDS011;20564;42.902;25.336;2023-05-10T09:57:03;3.38;;;1.17;;
34296;SDS011;20564;42.902;25.336;2023-05-10T09:59:45;3.25;;;1.25;;
34296;SDS011;20564;42.902;25.336;2023-05-10T10:02:12;2.55;;;1.08;;
34296;SDS011;20564;42.902;25.336;2023-05-10T10:04:39;2.03;;;1.00;;
34296;SDS011;20564;42.902;25.336;2023-05-10T10:07:09;2.42;;;1.08;;
34296;SDS011;20564;42.902;25.336;2023-05-10T10:09:40;2.50;;;1.23;;
34296;SDS011;20564;42.902;25.336;2023-05-10T10:12:07;2.10;;;1.23;;
34296;SDS011;20564;42.902;25.336;2023-05-10T10:14:48;4.13;;;1.50;;
34296;SDS011;20564;42.902;25.336;2023-05-10T10:17:18;3.70;;;1.10;;
34296;SDS011;20564;42.902;25.336;2023-05-10T10:19:49;2.97;;;1.00;;
34296;SDS011;20564;42.902;25.336;2023-05-10T10:22:17;2.13;;;1.20;;
34296;SDS011;20564;42.902;25.336;2023-05-10T10:24:46;2.85;;;1.08;;
34296;SDS011;20564;42.902;25.336;2023-05-10T10:27:20;2.75;;;1.10;;
34296;SDS011;20564;42.902;25.336;2023-05-10T10:33:06;1.92;;;0.77;;
34296;SDS011;20564;42.902;25.336;2023-05-10T10:35:54;3.88;;;1.30;;
34296;SDS011;20564;42.902;25.336;2023-05-10T10:41:27;3.13;;;1.20;;
34296;SDS011;20564;42.902;25.336;2023-05-10T10:52:31;7.60;;;1.25;;
34296;SDS011;20564;42.902;25.336;2023-05-10T10:57:53;3.47;;;1.23;;
34296;SDS011;20564;42.902;25.336;2023-05-10T11:00:30;5.38;;;1.30;;
34296;SDS011;20564;42.902;25.336;2023-05-10T11:03:08;3.03;;;1.00;;
34296;SDS011;20564;42.902;25.336;2023-05-10T11:05:43;1.70;;;1.00;;
34296;SDS011;20564;42.902;25.336;2023-05-10T11:08:27;4.25;;;0.75;;
34296;SDS011;20564;42.902;25.336;2023-05-10T11:13:45;2.78;;;1.20;;
34296;SDS011;20564;42.902;25.336;2023-05-10T11:16:21;2.40;;;1.08;;
34296;SDS011;20564;42.902;25.336;2023-05-10T11:18:54;4.25;;;1.10;;
34296;SDS011;20564;42.902;25.336;2023-05-10T11:21:29;2.75;;;1.13;;
34296;SDS011;20564;42.902;25.336;2023-05-10T11:24:02;1.98;;;0.90;;
34296;SDS011;20564;42.902;25.336;2023-05-10T11:29:06;3.53;;;1.15;;
34296;SDS011;20564;42.902;25.336;2023-05-10T11:31:41;3.30;;;1.10;;
34296;SDS011;20564;42.902;25.336;2023-05-10T11:34:22;3.60;;;0.90;;
34296;SDS011;20564;42.902;25.336;2023-05-10T11:36:57;3.25;;;1.00;;
34296;SDS011;20564;42.902;25.336;2023-05-10T11:39:29;1.85;;;1.00;;
34296;SDS011;20564;42.902;25.336;2023-05-10T11:41:58;2.13;;;0.60;;
34296;SDS011;20564;42.902;25.336;2023-05-10T11:44:30;3.60;;;1.83;;
34296;SDS011;20564;42.902;25.336;2023-05-10T11:47:02;6.75;;;1.30;;
34296;SDS011;20564;42.902;25.336;2023-05-10T11:49:29;3.53;;;1.30;;
34296;SDS011;20564;42.902;25.336;2023-05-10T11:52:06;2.55;;;0.95;;
34296;SDS011;20564;42.902;25.336;2023-05-10T11:54:36;1.40;;;0.93;;
34296;SDS011;20564;42.902;25.336;2023-05-10T11:57:04;7.35;;;1.08;;
34296;SDS011;20564;42.902;25.336;2023-05-10T11:59:31;2.78;;;1.17;;
34296;SDS011;20564;42.902;25.336;2023-05-10T12:01:58;1.48;;;0.77;;
34296;SDS011;20564;42.902;25.336;2023-05-10T12:04:29;1.67;;;0.85;;
34296;SDS011;20564;42.902;25.336;2023-05-10T12:06:58;2.17;;;0.88;;
34296;SDS011;20564;42.902;25.336;2023-05-10T12:09:25;2.35;;;1.08;;
34296;SDS011;20564;42.902;25.336;2023-05-10T12:11:55;6.00;;;1.58;;
34296;SDS011;20564;42.902;25.336;2023-05-10T12:14:25;7.45;;;1.50;;
34296;SDS011;20564;42.902;25.336;2023-05-10T12:19:20;2.42;;;0.73;;
34296;SDS011;20564;42.902;25.336;2023-05-10T12:21:54;1.75;;;0.80;;
34296;SDS011;20564;42.902;25.336;2023-05-10T12:24:34;2.83;;;1.25;;
34296;SDS011;20564;42.902;25.336;2023-05-10T12:27:05;1.40;;;0.80;;
34296;SDS011;20564;42.902;25.336;2023-05-10T12:29:35;2.72;;;1.05;;
34296;SDS011;20564;42.902;25.336;2023-05-10T12:32:06;3.53;;;0.95;;
34296;SDS011;20564;42.902;25.336;2023-05-10T12:34:33;3.72;;;1.48;;
34296;SDS011;20564;42.902;25.336;2023-05-10T12:37:02;4.28;;;1.42;;
34296;SDS011;20564;42.902;25.336;2023-05-10T12:39:40;1.75;;;0.82;;
34296;SDS011;20564;42.902;25.336;2023-05-10T12:42:11;2.35;;;0.80;;
34296;SDS011;20564;42.902;25.336;2023-05-10T12:44:39;2.05;;;1.00;;
34296;SDS011;20564;42.902;25.336;2023-05-10T12:47:06;2.55;;;1.02;;
34296;SDS011;20564;42.902;25.336;2023-05-10T12:49:34;2.28;;;0.93;;
34296;SDS011;20564;42.902;25.336;2023-05-10T12:52:01;1.83;;;0.90;;
34296;SDS011;20564;42.902;25.336;2023-05-10T12:54:28;0.77;;;0.55;;
34296;SDS011;20564;42.902;25.336;2023-05-10T12:56:55;3.08;;;1.10;;
34296;SDS011;20564;42.902;25.336;2023-05-10T12:59:22;1.55;;;1.02;;
34296;SDS011;20564;42.902;25.336;2023-05-10T13:01:49;2.78;;;0.90;;
34296;SDS011;20564;42.902;25.336;2023-05-10T13:04:16;1.95;;;0.98;;
34296;SDS011;20564;42.902;25.336;2023-05-10T13:06:43;1.83;;;0.90;;
34296;SDS011;20564;42.902;25.336;2023-05-10T13:09:13;2.00;;;0.90;;
34296;SDS011;20564;42.902;25.336;2023-05-10T13:11:41;2.67;;;1.13;;
34296;SDS011;20564;42.902;25.336;2023-05-10T13:14:08;3.20;;;1.00;;
34296;SDS011;20564;42.902;25.336;2023-05-10T13:16:42;1.55;;;0.80;;
34296;SDS011;20564;42.902;25.336;2023-05-10T13:19:09;2.15;;;0.90;;
34296;SDS011;20564;42.902;25.336;2023-05-10T13:21:37;3.28;;;0.80;;
34296;SDS011;20564;42.902;25.336;2023-05-10T13:24:07;2.65;;;0.70;;
34296;SDS011;20564;42.902;25.336;2023-05-10T13:26:35;1.48;;;0.70;;
34296;SDS011;20564;42.902;25.336;2023-05-10T13:29:03;2.60;;;1.17;;
34296;SDS011;20564;42.902;25.336;2023-05-10T13:31:31;1.90;;;0.80;;
34296;SDS011;20564;42.902;25.336;2023-05-10T13:36:26;1.95;;;0.73;;
34296;SDS011;20564;42.902;25.336;2023-05-10T13:38:53;1.58;;;0.85;;
34296;SDS011;20564;42.902;25.336;2023-05-10T13:41:20;1.70;;;0.75;;
34296;SDS011;20564;42.902;25.336;2023-05-10T13:43:47;1.60;;;0.70;;
34296;SDS011;20564;42.902;25.336;2023-05-10T13:46:17;0.85;;;0.60;;
34296;SDS011;20564;42.902;25.336;2023-05-10T13:51:21;1.95;;;0.60;;
34296;SDS011;20564;42.902;25.336;2023-05-10T13:53:54;1.13;;;0.73;;
34296;SDS011;20564;42.902;25.336;2023-05-10T13:56:41;1.98;;;0.77;;
34296;SDS011;20564;42.902;25.336;2023-05-10T13:59:09;1.23;;;0.63;;
34296;SDS011;20564;42.902;25.336;2023-05-10T14:01:40;1.45;;;0.70;;
34296;SDS011;20564;42.902;25.336;2023-05-10T14:04:15;2.13;;;0.82;;
34296;SDS011;20564;42.902;25.336;2023-05-10T14:06:45;2.92;;;0.80;;
34296;SDS011;20564;42.902;25.336;2023-05-10T14:09:12;3.85;;;0.90;;
34296;SDS011;20564;42.902;25.336;2023-05-10T14:11:49;1.73;;;0.52;;
34296;SDS011;20564;42.902;25.336;2023-05-10T14:14:16;2.78;;;0.82;;
34296;SDS011;20564;42.902;25.336;2023-05-10T14:16:44;1.60;;;0.73;;
34296;SDS011;20564;42.902;25.336;2023-05-10T14:19:14;3.83;;;1.00;;
34296;SDS011;20564;42.902;25.336;2023-05-10T14:24:19;1.58;;;0.77;;
34296;SDS011;20564;42.902;25.336;2023-05-10T14:26:53;2.13;;;0.80;;
34296;SDS011;20564;42.902;25.336;2023-05-10T14:29:21;1.85;;;0.73;;
34296;SDS011;20564;42.902;25.336;2023-05-10T14:31:52;2.58;;;0.80;;
34296;SDS011;20564;42.902;25.336;2023-05-10T14:34:25;2.15;;;0.68;;
34296;SDS011;20564;42.902;25.336;2023-05-10T14:36:58;2.72;;;1.10;;
34296;SDS011;20564;42.902;25.336;2023-05-10T14:39:25;1.40;;;0.70;;
34296;SDS011;20564;42.902;25.336;2023-05-10T14:41:59;1.77;;;0.80;;
34296;SDS011;20564;42.902;25.336;2023-05-10T14:44:25;1.65;;;0.73;;
34296;SDS011;20564;42.902;25.336;2023-05-10T14:46:53;2.28;;;0.80;;
34296;SDS011;20564;42.902;25.336;2023-05-10T14:49:23;1.45;;;0.77;;
34296;SDS011;20564;42.902;25.336;2023-05-10T14:55:34;10.45;;;1.60;;
34296;SDS011;20564;42.902;25.336;2023-05-10T14:58:05;6.70;;;0.95;;
34296;SDS011;20564;42.902;25.336;2023-05-10T15:00:37;4.85;;;1.52;;
34296;SDS011;20564;42.902;25.336;2023-05-10T15:05:39;5.95;;;1.02;;
34296;SDS011;20564;42.902;25.336;2023-05-10T15:08:07;1.98;;;0.80;;
34296;SDS011;20564;42.902;25.336;2023-05-10T15:10:36;3.17;;;0.90;;
34296;SDS011;20564;42.902;25.336;2023-05-10T15:13:03;2.17;;;0.68;;
34296;SDS011;20564;42.902;25.336;2023-05-10T15:17:58;1.20;;;0.82;;
34296;SDS011;20564;42.902;25.336;2023-05-10T15:20:25;3.50;;;1.00;;
34296;SDS011;20564;42.902;25.336;2023-05-10T15:22:52;3.15;;;0.80;;
34296;SDS011;20564;42.902;25.336;2023-05-10T15:25:19;1.63;;;0.65;;
34296;SDS011;20564;42.902;25.336;2023-05-10T15:27:46;1.20;;;0.60;;
34296;SDS011;20564;42.902;25.336;2023-05-10T15:30:13;1.25;;;0.73;;
34296;SDS011;20564;42.902;25.336;2023-05-10T15:32:40;2.65;;;0.93;;
34296;SDS011;20564;42.902;25.336;2023-05-10T15:35:07;1.52;;;0.70;;
34296;SDS011;20564;42.902;25.336;2023-05-10T15:37:36;2.65;;;0.80;;
34296;SDS011;20564;42.902;25.336;2023-05-10T15:40:12;2.35;;;0.90;;
34296;SDS011;20564;42.902;25.336;2023-05-10T15:42:39;2.28;;;0.73;;
34296;SDS011;20564;42.902;25.336;2023-05-10T15:45:06;2.90;;;1.00;;
34296;SDS011;20564;42.902;25.336;2023-05-10T15:47:34;2.55;;;0.88;;
34296;SDS011;20564;42.902;25.336;2023-05-10T15:50:06;1.70;;;0.60;;
34296;SDS011;20564;42.902;25.336;2023-05-10T15:52:34;1.88;;;0.75;;
34296;SDS011;20564;42.902;25.336;2023-05-10T15:55:05;3.22;;;1.00;;
34296;SDS011;20564;42.902;25.336;2023-05-10T15:57:38;1.38;;;0.60;;
34296;SDS011;20564;42.902;25.336;2023-05-10T16:00:10;3.53;;;1.45;;
34296;SDS011;20564;42.902;25.336;2023-05-10T16:02:39;2.00;;;0.70;;
34296;SDS011;20564;42.902;25.336;2023-05-10T16:05:07;1.35;;;0.52;;
34296;SDS011;20564;42.902;25.336;2023-05-10T16:07:35;2.95;;;0.70;;
34296;SDS011;20564;42.902;25.336;2023-05-10T16:10:02;1.85;;;0.88;;
34296;SDS011;20564;42.902;25.336;2023-05-10T16:12:32;1.73;;;0.75;;
34296;SDS011;20564;42.902;25.336;2023-05-10T16:15:11;2.47;;;0.80;;